Time;durP1;ratioP1;P1;durP2;ratioP2;P2;SDS_P1;SDS_P2;PMS_P1;PMS_P2;Temp;Humidity;BMP_temperature;BMP_pressure;BME280_temperature;BME280_humidity;BME280_pressure;Samples;Min_cycle;Max_cycle;Signal;HPM_P1;HPM_P2
2022/03/04 00:01:24;;;;;;;;;;;3.80;82.10;;;;;;5085079;28;20322;-67
2022/03/04 00:03:49;;;;;;;;;;;3.80;82.00;;;;;;5085788;28;19916;-68
2022/03/04 00:06:15;;;;;;;;;;;3.80;82.00;;;;;;5085355;28;20486;-67
2022/03/04 00:08:41;;;;;;;;;;;3.80;82.00;;;;;;5086877;28;19913;-67
2022/03/04 00:11:07;;;;;;;;;;;3.80;82.00;;;;;;5068041;28;19919;-67
2022/03/04 00:13:33;;;;;;;;;;;3.80;82.00;;;;;;5086559;28;20549;-67
2022/03/04 00:15:58;;;;;;;;;;;3.70;82.00;;;;;;5085978;28;19920;-67
2022/03/04 00:18:24;;;;;;;;;;;3.70;81.90;;;;;;5084216;28;19921;-67
2022/03/04 00:20:49;;;;;;;;;;;3.70;81.90;;;;;;5087846;28;19916;-67
2022/03/04 00:23:15;;;;;;;;;;;3.70;81.90;;;;;;5083715;28;19912;-67
2022/03/04 00:25:41;;;;;;;;;;;3.70;81.90;;;;;;5087871;28;19970;-67
2022/03/04 00:28:06;;;;;;;;;;;3.70;81.90;;;;;;5083462;28;19941;-67
2022/03/04 00:30:32;;;;;;;;;;;3.70;82.00;;;;;;5086450;28;19966;-67
2022/03/04 00:32:58;;;;;;;;;;;3.60;81.90;;;;;;5082128;28;19919;-67
2022/03/04 00:35:24;;;;;;;;;;;3.60;81.90;;;;;;5069770;28;19912;-68
2022/03/04 00:37:49;;;;;;;;;;;3.60;82.00;;;;;;5063795;28;19908;-68
2022/03/04 00:40:15;;;;;;;;;;;3.60;82.00;;;;;;5087759;28;19916;-68
2022/03/04 00:42:40;;;;;;;;;;;3.60;81.90;;;;;;5082781;28;19946;-67
2022/03/04 00:45:06;;;;;;;;;;;3.60;82.00;;;;;;5087266;28;20687;-67
2022/03/04 00:47:31;;;;;;;;;;;3.60;82.00;;;;;;5083474;28;20010;-68
2022/03/04 00:49:58;;;;;;;;;;;3.60;82.00;;;;;;5087221;28;20285;-67
2022/03/04 00:52:24;;;;;;;;;;;3.50;81.90;;;;;;5087053;28;20254;-67
2022/03/04 00:54:49;;;;;;;;;;;3.50;82.00;;;;;;5083965;28;19973;-67
2022/03/04 00:57:15;;;;;;;;;;;3.50;82.10;;;;;;5068607;28;20658;-67
2022/03/04 00:59:40;;;;;;;;;;;3.50;82.00;;;;;;5080243;28;19920;-67
2022/03/04 01:02:06;;;;;;;;;;;3.50;82.00;;;;;;5084301;28;20628;-67
2022/03/04 01:04:31;;;;;;;;;;;3.50;82.10;;;;;;5081915;28;19978;-67
2022/03/04 01:06:57;;;;;;;;;;;3.40;82.00;;;;;;5084422;28;19916;-67
2022/03/04 01:09:22;;;;;;;;;;;3.40;82.00;;;;;;5084508;28;19959;-67
2022/03/04 01:11:48;;;;;;;;;;;3.50;82.00;;;;;;5086269;28;19964;-67
2022/03/04 01:14:13;;;;;;;;;;;3.40;82.00;;;;;;5082228;28;19913;-67
2022/03/04 01:16:39;;;;;;;;;;;3.40;82.00;;;;;;5086693;28;19916;-67
2022/03/04 01:19:05;;;;;;;;;;;3.40;82.00;;;;;;5065469;28;19912;-67
2022/03/04 01:21:30;;;;;;;;;;;3.40;82.00;;;;;;5085677;28;20702;-67
2022/03/04 01:23:56;;;;;;;;;;;3.40;82.00;;;;;;5065998;28;19977;-67
2022/03/04 01:26:21;;;;;;;;;;;3.40;82.00;;;;;;5083821;28;19922;-67
2022/03/04 01:28:47;;;;;;;;;;;3.40;82.00;;;;;;5068542;28;19930;-67
2022/03/04 01:31:12;;;;;;;;;;;3.30;82.00;;;;;;5082129;28;19938;-67
2022/03/04 01:33:38;;;;;;;;;;;3.30;82.00;;;;;;5068687;28;20469;-67
2022/03/04 01:36:04;;;;;;;;;;;3.30;82.00;;;;;;5083723;28;20357;-67
2022/03/04 01:38:29;;;;;;;;;;;3.30;82.00;;;;;;5084250;28;20383;-67
2022/03/04 01:40:55;;;;;;;;;;;3.30;82.00;;;;;;5083975;28;20385;-67
2022/03/04 01:43:20;;;;;;;;;;;3.30;82.00;;;;;;5068361;28;19916;-67
2022/03/04 01:45:46;;;;;;;;;;;3.30;82.00;;;;;;5083298;28;19943;-67
2022/03/04 01:48:12;;;;;;;;;;;3.20;82.00;;;;;;5067556;28;19932;-67
2022/03/04 01:50:37;;;;;;;;;;;3.20;81.90;;;;;;5083916;28;19997;-67
2022/03/04 01:53:03;;;;;;;;;;;3.20;81.90;;;;;;5067910;28;20000;-67
2022/03/04 01:55:28;;;;;;;;;;;3.20;82.00;;;;;;5083986;28;19916;-67
2022/03/04 01:57:54;;;;;;;;;;;3.20;82.00;;;;;;5084868;28;19962;-67
2022/03/04 02:00:19;;;;;;;;;;;3.20;82.00;;;;;;5066479;28;20350;-67
2022/03/04 02:02:45;;;;;;;;;;;3.20;82.00;;;;;;5085547;28;19920;-67
2022/03/04 02:05:11;;;;;;;;;;;3.20;82.00;;;;;;5087241;28;19912;-67
2022/03/04 02:07:37;;;;;;;;;;;3.10;82.00;;;;;;5063365;28;19947;-67
2022/03/04 02:10:02;;;;;;;;;;;3.10;82.00;;;;;;5060058;28;20006;-67
2022/03/04 02:12:28;;;;;;;;;;;3.10;81.90;;;;;;5084666;28;19920;-67
2022/03/04 02:14:53;;;;;;;;;;;3.10;81.90;;;;;;5086168;28;20002;-67
2022/03/04 02:17:19;;;;;;;;;;;3.10;82.10;;;;;;5081427;28;20377;-67
2022/03/04 02:19:44;;;;;;;;;;;3.10;82.00;;;;;;5088368;28;19915;-67
2022/03/04 02:22:10;;;;;;;;;;;3.10;81.90;;;;;;5087591;28;19943;-67
2022/03/04 02:24:35;;;;;;;;;;;3.10;82.00;;;;;;5090317;28;20003;-67
2022/03/04 02:27:02;;;;;;;;;;;3.10;82.00;;;;;;5067961;28;19916;-67
2022/03/04 02:29:28;;;;;;;;;;;3.10;82.00;;;;;;5071829;28;19916;-67
2022/03/04 02:31:54;;;;;;;;;;;3.10;82.00;;;;;;5086449;28;20329;-67
2022/03/04 02:34:20;;;;;;;;;;;3.10;82.00;;;;;;5089263;28;20008;-67
2022/03/04 02:36:46;;;;;;;;;;;3.10;81.90;;;;;;5085848;28;19962;-67
2022/03/04 02:39:11;;;;;;;;;;;3.00;82.00;;;;;;5090235;28;19923;-67
2022/03/04 02:41:37;;;;;;;;;;;3.00;81.90;;;;;;5087042;28;19924;-67
2022/03/04 02:44:04;;;;;;;;;;;3.00;81.90;;;;;;5071474;28;19919;-67
2022/03/04 02:46:30;;;;;;;;;;;3.10;82.00;;;;;;5084742;28;19920;-67
2022/03/04 02:48:55;;;;;;;;;;;3.00;82.00;;;;;;5086487;28;19923;-67
2022/03/04 02:51:21;;;;;;;;;;;3.00;82.00;;;;;;5070082;28;20015;-67
2022/03/04 02:53:46;;;;;;;;;;;3.00;82.10;;;;;;5086733;28;20293;-67
2022/03/04 02:56:12;;;;;;;;;;;3.00;82.00;;;;;;5087682;28;19927;-67
2022/03/04 02:58:38;;;;;;;;;;;3.00;82.00;;;;;;5068651;28;20404;-67
2022/03/04 03:01:04;;;;;;;;;;;3.00;82.00;;;;;;5087417;28;20401;-67
2022/03/04 03:03:29;;;;;;;;;;;3.00;82.00;;;;;;5085331;28;20384;-67
2022/03/04 03:05:55;;;;;;;;;;;3.00;82.00;;;;;;5070721;28;19920;-67
2022/03/04 03:08:20;;;;;;;;;;;3.00;82.20;;;;;;5066596;28;20357;-67
2022/03/04 03:10:46;;;;;;;;;;;2.90;82.00;;;;;;5069708;28;20596;-67
2022/03/04 03:13:11;;;;;;;;;;;3.00;82.00;;;;;;5085990;28;19944;-67
2022/03/04 03:15:37;;;;;;;;;;;2.90;82.00;;;;;;5088239;28;19972;-67
2022/03/04 03:18:02;;;;;;;;;;;2.90;81.90;;;;;;5086766;28;19912;-67
2022/03/04 03:20:28;;;;;;;;;;;2.90;82.00;;;;;;5085451;28;19923;-67
2022/03/04 03:22:54;;;;;;;;;;;2.90;82.00;;;;;;5086890;28;20386;-67
2022/03/04 03:25:19;;;;;;;;;;;2.90;82.00;;;;;;5085691;28;19922;-67
2022/03/04 03:27:45;;;;;;;;;;;2.90;82.10;;;;;;5087239;28;19912;-67
2022/03/04 03:30:11;;;;;;;;;;;2.90;82.10;;;;;;5064278;28;19973;-67
2022/03/04 03:32:37;;;;;;;;;;;2.90;82.10;;;;;;5086806;28;19999;-67
2022/03/04 03:35:03;;;;;;;;;;;2.90;82.00;;;;;;5069493;28;20003;-67
2022/03/04 03:37:28;;;;;;;;;;;2.90;82.10;;;;;;5068989;28;19965;-67
2022/03/04 03:39:54;;;;;;;;;;;2.90;82.00;;;;;;5085965;28;19958;-67
2022/03/04 03:42:20;;;;;;;;;;;2.90;82.00;;;;;;5069470;28;19920;-67
2022/03/04 03:44:45;;;;;;;;;;;2.80;81.90;;;;;;5086147;28;20049;-67
2022/03/04 03:47:11;;;;;;;;;;;2.80;82.10;;;;;;5067676;28;20331;-67
2022/03/04 03:49:37;;;;;;;;;;;2.80;82.00;;;;;;5086279;28;20442;-67
2022/03/04 03:52:03;;;;;;;;;;;2.80;82.10;;;;;;5085586;28;19916;-67
2022/03/04 03:54:28;;;;;;;;;;;2.80;81.90;;;;;;5088093;28;19989;-67
2022/03/04 03:56:54;;;;;;;;;;;2.80;82.00;;;;;;5082942;28;19914;-67
2022/03/04 03:59:19;;;;;;;;;;;2.80;82.00;;;;;;5088227;28;19912;-67
2022/03/04 04:01:45;;;;;;;;;;;2.70;82.00;;;;;;5084204;28;20063;-67
2022/03/04 04:04:14;;;;;;;;;;;2.80;82.00;;;;;;5086735;28;19912;-67
2022/03/04 04:06:43;;;;;;;;;;;2.70;82.00;;;;;;5083456;28;20003;-67
2022/03/04 04:09:09;;;;;;;;;;;2.70;82.20;;;;;;5070031;28;19926;-67
2022/03/04 04:11:35;;;;;;;;;;;2.70;82.00;;;;;;5083999;28;19912;-67
2022/03/04 04:14:07;;;;;;;;;;;2.70;82.00;;;;;;5068647;28;19912;-67
2022/03/04 04:16:33;;;;;;;;;;;2.70;82.00;;;;;;5084818;28;19919;-67
2022/03/04 04:18:59;;;;;;;;;;;2.70;82.00;;;;;;5085063;28;20379;-67
2022/03/04 04:21:25;;;;;;;;;;;2.70;82.00;;;;;;5083349;28;19920;-67
2022/03/04 04:23:52;;;;;;;;;;;2.60;81.90;;;;;;5073373;28;19943;-67
2022/03/04 04:26:17;;;;;;;;;;;2.60;81.90;;;;;;5082263;28;19916;-67
2022/03/04 04:28:43;;;;;;;;;;;2.70;82.00;;;;;;5087270;28;20257;-67
2022/03/04 04:31:08;;;;;;;;;;;2.60;82.00;;;;;;5066425;28;19920;-67
2022/03/04 04:33:34;;;;;;;;;;;2.60;81.90;;;;;;5087824;28;19961;-67
2022/03/04 04:35:59;;;;;;;;;;;2.60;82.00;;;;;;5067389;28;19955;-67
2022/03/04 04:38:25;;;;;;;;;;;2.60;82.10;;;;;;5083678;28;20361;-67
2022/03/04 04:40:50;;;;;;;;;;;2.60;82.00;;;;;;5085499;28;19920;-67
2022/03/04 04:43:16;;;;;;;;;;;2.60;82.00;;;;;;5082869;28;19958;-67
2022/03/04 04:45:42;;;;;;;;;;;2.60;82.00;;;;;;5068313;28;20007;-67
2022/03/04 04:48:07;;;;;;;;;;;2.50;82.00;;;;;;5084426;28;19916;-67
2022/03/04 04:50:33;;;;;;;;;;;2.60;82.00;;;;;;5085325;28;19947;-67
2022/03/04 04:52:58;;;;;;;;;;;2.50;82.00;;;;;;5085041;28;19912;-67
2022/03/04 04:55:24;;;;;;;;;;;2.50;82.00;;;;;;5084855;28;19923;-67
2022/03/04 04:57:49;;;;;;;;;;;2.50;81.90;;;;;;5084272;28;19916;-67
2022/03/04 05:00:15;;;;;;;;;;;2.50;82.00;;;;;;5087205;28;20311;-67
2022/03/04 05:02:40;;;;;;;;;;;2.50;82.00;;;;;;5065737;28;19923;-67
2022/03/04 05:05:06;;;;;;;;;;;2.50;82.00;;;;;;5086084;28;19924;-67
2022/03/04 05:07:31;;;;;;;;;;;2.50;82.00;;;;;;5084557;28;19934;-67
2022/03/04 05:09:57;;;;;;;;;;;2.50;82.10;;;;;;5083700;28;20411;-67
2022/03/04 05:12:22;;;;;;;;;;;2.50;82.00;;;;;;5068808;28;19916;-67
2022/03/04 05:14:48;;;;;;;;;;;2.50;82.00;;;;;;5065150;28;19916;-67
2022/03/04 05:17:13;;;;;;;;;;;2.40;82.00;;;;;;5084043;28;20298;-67
2022/03/04 05:19:39;;;;;;;;;;;2.40;82.10;;;;;;5082047;28;19920;-67
2022/03/04 05:22:04;;;;;;;;;;;2.40;82.10;;;;;;5085736;28;20522;-67
2022/03/04 05:24:30;;;;;;;;;;;2.40;82.10;;;;;;5080702;28;19912;-67
2022/03/04 05:26:55;;;;;;;;;;;2.40;82.10;;;;;;5066478;28;19916;-67
2022/03/04 05:29:21;;;;;;;;;;;2.40;82.00;;;;;;5082625;28;19916;-67
2022/03/04 05:31:46;;;;;;;;;;;2.40;82.00;;;;;;5067565;28;19947;-67
2022/03/04 05:34:12;;;;;;;;;;;2.40;82.00;;;;;;5083920;28;20906;-67
2022/03/04 05:36:38;;;;;;;;;;;2.40;82.10;;;;;;5086231;28;20003;-67
2022/03/04 05:39:04;;;;;;;;;;;2.30;81.90;;;;;;5084504;28;20045;-67
2022/03/04 05:41:29;;;;;;;;;;;2.30;82.00;;;;;;5085856;28;19916;-67
2022/03/04 05:43:55;;;;;;;;;;;2.30;82.00;;;;;;5066202;28;19978;-67
2022/03/04 05:46:20;;;;;;;;;;;2.30;82.00;;;;;;5084153;28;19916;-67
2022/03/04 05:48:46;;;;;;;;;;;2.30;82.10;;;;;;5068546;28;20273;-67
2022/03/04 05:51:11;;;;;;;;;;;2.30;82.00;;;;;;5081783;28;19912;-67
2022/03/04 05:53:37;;;;;;;;;;;2.30;82.10;;;;;;5067335;28;19933;-67
2022/03/04 05:56:07;;;;;;;;;;;2.30;82.10;;;;;;5086332;28;20262;-67
2022/03/04 05:58:33;;;;;;;;;;;2.30;82.10;;;;;;5071784;28;19924;-67
2022/03/04 06:00:58;;;;;;;;;;;2.30;82.10;;;;;;5086658;28;19916;-67
2022/03/04 06:03:24;;;;;;;;;;;2.30;82.10;;;;;;5089259;28;19915;-67
2022/03/04 06:05:50;;;;;;;;;;;2.20;82.10;;;;;;5085775;28;20269;-67
2022/03/04 06:08:15;;;;;;;;;;;2.20;82.10;;;;;;5080495;28;19912;-67
2022/03/04 06:10:40;;;;;;;;;;;2.20;82.10;;;;;;5086107;28;20376;-67
2022/03/04 06:13:07;;;;;;;;;;;2.20;82.10;;;;;;5090584;28;19912;-67
2022/03/04 06:15:32;;;;;;;;;;;2.20;82.10;;;;;;5050955;28;19963;-67
2022/03/04 06:17:58;;;;;;;;;;;2.20;82.10;;;;;;5090752;28;20007;-67
2022/03/04 06:20:23;;;;;;;;;;;2.20;82.10;;;;;;5085079;28;20262;-67
2022/03/04 06:22:49;;;;;;;;;;;2.20;82.10;;;;;;5090569;28;19977;-67
2022/03/04 06:25:14;;;;;;;;;;;2.20;82.10;;;;;;5087527;28;19920;-67
2022/03/04 06:27:53;;;;;;;;;;;2.20;82.10;;;;;;5068433;28;19916;-67
2022/03/04 06:30:18;;;;;;;;;;;2.20;82.10;;;;;;5087255;28;20408;-67
2022/03/04 06:32:44;;;;;;;;;;;2.20;82.10;;;;;;5088355;28;19999;-67
2022/03/04 06:35:09;;;;;;;;;;;2.20;82.10;;;;;;5088647;28;20295;-67
2022/03/04 06:37:35;;;;;;;;;;;2.20;82.10;;;;;;5068109;28;20030;-67
2022/03/04 06:40:02;;;;;;;;;;;2.20;82.10;;;;;;5070414;28;19958;-67
2022/03/04 06:42:28;;;;;;;;;;;2.20;82.10;;;;;;5086105;28;20054;-67
2022/03/04 06:44:53;;;;;;;;;;;2.20;82.10;;;;;;5088119;28;20417;-67
2022/03/04 06:47:19;;;;;;;;;;;2.20;82.10;;;;;;5085740;28;19918;-67
2022/03/04 06:49:44;;;;;;;;;;;2.20;82.10;;;;;;5088619;28;19912;-67
2022/03/04 06:52:09;;;;;;;;;;;2.20;82.10;;;;;;5087946;28;20000;-67
2022/03/04 06:54:37;;;;;;;;;;;2.20;82.10;;;;;;5087528;28;19923;-67
2022/03/04 06:57:03;;;;;;;;;;;2.20;82.10;;;;;;5085415;28;19920;-67
2022/03/04 06:59:28;;;;;;;;;;;2.20;82.10;;;;;;5087226;28;19920;-67
2022/03/04 07:01:54;;;;;;;;;;;2.20;82.10;;;;;;5083985;28;19937;-67
2022/03/04 07:04:19;;;;;;;;;;;2.20;82.10;;;;;;5086914;28;19916;-67
2022/03/04 07:06:45;;;;;;;;;;;2.20;82.10;;;;;;5086748;28;19912;-67
2022/03/04 07:09:10;;;;;;;;;;;2.20;82.10;;;;;;5085690;28;19912;-67
2022/03/04 07:11:36;;;;;;;;;;;2.20;82.10;;;;;;5087745;28;19912;-68
2022/03/04 07:14:02;;;;;;;;;;;2.20;82.10;;;;;;5067411;28;20461;-67
2022/03/04 07:16:27;;;;;;;;;;;2.20;82.10;;;;;;5070031;28;19923;-67
2022/03/04 07:18:53;;;;;;;;;;;2.20;82.20;;;;;;5085914;28;20541;-67
2022/03/04 07:21:18;;;;;;;;;;;2.20;82.10;;;;;;5068662;28;19919;-67
2022/03/04 07:23:44;;;;;;;;;;;2.20;82.10;;;;;;5085175;28;19923;-67
2022/03/04 07:26:10;;;;;;;;;;;2.20;82.20;;;;;;5085342;28;20412;-67
2022/03/04 07:28:36;;;;;;;;;;;2.20;82.10;;;;;;5081106;28;19923;-67
2022/03/04 07:31:01;;;;;;;;;;;2.20;82.10;;;;;;5087052;28;20048;-67
2022/03/04 07:33:27;;;;;;;;;;;2.20;82.10;;;;;;5085738;28;19928;-67
2022/03/04 07:35:52;;;;;;;;;;;2.20;82.20;;;;;;5087749;28;20073;-67
2022/03/04 07:38:18;;;;;;;;;;;2.20;82.10;;;;;;5085328;28;20445;-67
2022/03/04 07:40:44;;;;;;;;;;;2.20;82.10;;;;;;5085666;28;19924;-67
2022/03/04 07:43:09;;;;;;;;;;;2.20;82.10;;;;;;5086988;28;20373;-67
2022/03/04 07:45:35;;;;;;;;;;;2.30;82.70;;;;;;5083530;28;19909;-67
2022/03/04 07:48:00;;;;;;;;;;;2.30;82.00;;;;;;5088623;28;19915;-67
2022/03/04 07:50:26;;;;;;;;;;;2.30;82.10;;;;;;5066817;28;19929;-67
2022/03/04 07:52:51;;;;;;;;;;;2.30;82.00;;;;;;5088679;28;19943;-67
2022/03/04 07:55:17;;;;;;;;;;;2.30;82.70;;;;;;5066227;28;19932;-67
2022/03/04 07:57:43;;;;;;;;;;;2.30;81.90;;;;;;5088270;28;19920;-67
2022/03/04 08:00:10;;;;;;;;;;;2.30;82.00;;;;;;5084133;28;19920;-67
2022/03/04 08:02:36;;;;;;;;;;;2.30;82.60;;;;;;5088723;28;20017;-67
2022/03/04 08:05:01;;;;;;;;;;;2.40;82.10;;;;;;5083337;28;20384;-67
2022/03/04 08:07:27;;;;;;;;;;;2.40;82.00;;;;;;5088601;28;19912;-67
2022/03/04 08:09:52;;;;;;;;;;;2.40;82.00;;;;;;5082521;28;19975;-67
2022/03/04 08:12:18;;;;;;;;;;;2.40;81.90;;;;;;5070044;28;19918;-67
2022/03/04 08:14:43;;;;;;;;;;;2.40;81.90;;;;;;5083973;28;19920;-67
2022/03/04 08:17:09;;;;;;;;;;;2.50;82.00;;;;;;5084660;28;19919;-67
2022/03/04 08:19:35;;;;;;;;;;;2.50;82.00;;;;;;5084133;28;19924;-67
2022/03/04 08:22:01;;;;;;;;;;;2.50;81.90;;;;;;5085625;28;19923;-67
2022/03/04 08:24:27;;;;;;;;;;;2.50;81.90;;;;;;5069262;28;19920;-67
2022/03/04 08:26:52;;;;;;;;;;;2.60;81.90;;;;;;5084790;28;19919;-67
2022/03/04 08:29:18;;;;;;;;;;;2.60;81.80;;;;;;5085578;28;19916;-67
2022/03/04 08:31:44;;;;;;;;;;;2.70;81.50;;;;;;5083853;28;19995;-67
2022/03/04 08:34:09;;;;;;;;;;;2.80;81.50;;;;;;5085958;28;19916;-67
2022/03/04 08:36:36;;;;;;;;;;;2.80;81.40;;;;;;5084306;28;20254;-67
2022/03/04 08:39:03;;;;;;;;;;;2.90;81.20;;;;;;5085388;28;20378;-67
2022/03/04 08:41:29;;;;;;;;;;;2.90;81.00;;;;;;5084746;28;19916;-67
2022/03/04 08:43:55;;;;;;;;;;;3.00;81.20;;;;;;5069511;28;19920;-67
2022/03/04 08:46:21;;;;;;;;;;;3.00;81.30;;;;;;5086447;28;19923;-67
2022/03/04 08:48:47;;;;;;;;;;;3.00;81.30;;;;;;5086041;28;19912;-67
2022/03/04 08:51:12;;;;;;;;;;;3.00;81.20;;;;;;5066869;28;19918;-69
2022/03/04 08:53:38;;;;;;;;;;;3.10;81.30;;;;;;5085940;28;19977;-67
2022/03/04 08:56:04;;;;;;;;;;;3.20;81.10;;;;;;5068144;28;19920;-67
2022/03/04 08:58:29;;;;;;;;;;;3.30;81.10;;;;;;5066401;28;19930;-67
2022/03/04 09:00:55;;;;;;;;;;;3.30;81.00;;;;;;5068424;28;20266;-67
2022/03/04 09:03:20;;;;;;;;;;;3.30;80.90;;;;;;5066412;28;19920;-67
2022/03/04 09:05:46;;;;;;;;;;;3.40;80.90;;;;;;5085064;28;19969;-67
2022/03/04 09:08:12;;;;;;;;;;;3.40;80.90;;;;;;5083490;28;19993;-67
2022/03/04 09:10:37;;;;;;;;;;;3.50;80.80;;;;;;5086484;28;20720;-67
2022/03/04 09:13:04;;;;;;;;;;;3.50;80.70;;;;;;5083826;28;19920;-67
2022/03/04 09:15:30;;;;;;;;;;;3.60;81.30;;;;;;5086492;28;19966;-67
2022/03/04 09:17:55;;;;;;;;;;;3.60;80.50;;;;;;5081699;28;19920;-67
2022/03/04 09:20:21;;;;;;;;;;;3.60;80.50;;;;;;5086391;28;19955;-67
2022/03/04 09:22:46;;;;;;;;;;;3.60;80.40;;;;;;5084069;28;19924;-67
2022/03/04 09:25:12;;;;;;;;;;;3.70;80.40;;;;;;5086245;28;19912;-67
2022/03/04 09:27:38;;;;;;;;;;;3.70;80.40;;;;;;5082499;28;19916;-67
2022/03/04 09:30:04;;;;;;;;;;;3.70;80.40;;;;;;5087214;28;19943;-67
2022/03/04 09:32:29;;;;;;;;;;;3.70;80.30;;;;;;5091018;28;19935;-67
2022/03/04 09:34:55;;;;;;;;;;;3.70;80.30;;;;;;5086689;28;20471;-67
2022/03/04 09:37:20;;;;;;;;;;;3.70;80.40;;;;;;5090238;28;19923;-67
2022/03/04 09:39:46;;;;;;;;;;;3.70;80.40;;;;;;5086739;28;20452;-67
2022/03/04 09:42:11;;;;;;;;;;;3.80;80.40;;;;;;5090125;28;19923;-67
2022/03/04 09:44:39;;;;;;;;;;;3.80;80.40;;;;;;5068591;28;19923;-67
2022/03/04 09:47:05;;;;;;;;;;;3.80;80.40;;;;;;5088050;28;19912;-67
2022/03/04 09:49:31;;;;;;;;;;;3.80;80.40;;;;;;5087859;28;20284;-67
2022/03/04 09:51:57;;;;;;;;;;;3.80;80.40;;;;;;5089633;28;19946;-67
2022/03/04 09:54:25;;;;;;;;;;;3.90;80.40;;;;;;5086814;28;19916;-67
2022/03/04 09:56:52;;;;;;;;;;;3.90;80.40;;;;;;5070210;28;19912;-67
2022/03/04 09:59:17;;;;;;;;;;;3.90;80.30;;;;;;5066632;28;20125;-67
2022/03/04 10:01:43;;;;;;;;;;;3.90;80.30;;;;;;5089877;28;19912;-67
2022/03/04 10:04:09;;;;;;;;;;;3.90;80.30;;;;;;5085934;28;19920;-67
2022/03/04 10:06:36;;;;;;;;;;;3.90;80.30;;;;;;5089039;28;19919;-67
2022/03/04 10:09:02;;;;;;;;;;;4.00;80.30;;;;;;5087442;28;20680;-67
2022/03/04 10:11:36;;;;;;;;;;;4.00;80.20;;;;;;5068530;28;19916;-67
2022/03/04 10:14:07;;;;;;;;;;;4.00;80.30;;;;;;5087901;28;20353;-67
2022/03/04 10:16:40;;;;;;;;;;;4.00;80.20;;;;;;5086817;28;20006;-67
2022/03/04 10:19:16;;;;;;;;;;;4.00;80.30;;;;;;5087006;28;19926;-67
2022/03/04 10:21:57;;;;;;;;;;;4.00;80.20;;;;;;5086717;28;20385;-67
2022/03/04 10:24:30;;;;;;;;;;;4.10;80.20;;;;;;5087112;28;19969;-67
2022/03/04 10:27:06;;;;;;;;;;;4.10;80.10;;;;;;5085706;28;19931;-67
2022/03/04 10:29:34;;;;;;;;;;;4.10;80.20;;;;;;5086625;28;20653;-67
2022/03/04 10:32:15;;;;;;;;;;;4.10;80.10;;;;;;5085173;28;19916;-67
2022/03/04 10:34:46;;;;;;;;;;;4.10;80.00;;;;;;5086560;28;19931;-67
2022/03/04 10:37:12;;;;;;;;;;;4.20;80.10;;;;;;5082324;28;20358;-67
2022/03/04 10:40:07;;;;;;;;;;;4.20;80.00;;;;;;5087762;28;19935;-67
2022/03/04 10:42:39;;;;;;;;;;;4.20;80.00;;;;;;5065962;28;19916;-67
2022/03/04 10:45:08;;;;;;;;;;;4.30;80.00;;;;;;5086462;28;19957;-67
2022/03/04 10:47:49;;;;;;;;;;;4.30;80.00;;;;;;5087335;28;19920;-67
2022/03/04 10:50:15;;;;;;;;;;;4.30;80.00;;;;;;5068979;28;19915;-67
2022/03/04 10:53:07;;;;;;;;;;;4.40;80.00;;;;;;5079440;28;19942;-67
2022/03/04 10:55:41;;;;;;;;;;;4.40;79.90;;;;;;5066578;28;20643;-67
2022/03/04 10:58:13;;;;;;;;;;;4.40;79.90;;;;;;5083059;28;20550;-67
2022/03/04 11:00:40;;;;;;;;;;;4.50;79.80;;;;;;5088045;28;19923;-67
2022/03/04 11:03:06;;;;;;;;;;;4.60;79.80;;;;;;5082516;28;19916;-68
2022/03/04 11:05:31;;;;;;;;;;;4.60;79.80;;;;;;5088324;28;19927;-67
2022/03/04 11:07:57;;;;;;;;;;;4.70;79.60;;;;;;5084673;28;19949;-67
2022/03/04 11:10:23;;;;;;;;;;;4.70;79.70;;;;;;5087754;28;19964;-67
2022/03/04 11:12:55;;;;;;;;;;;4.80;79.60;;;;;;5085400;28;19916;-67
2022/03/04 11:15:22;;;;;;;;;;;4.90;79.50;;;;;;5086206;28;19920;-67
2022/03/04 11:17:49;;;;;;;;;;;5.00;79.20;;;;;;5082760;28;19923;-68
2022/03/04 11:20:15;;;;;;;;;;;5.10;78.90;;;;;;5089183;28;20398;-67
2022/03/04 11:22:42;;;;;;;;;;;5.20;78.70;;;;;;5083222;28;19916;-67
2022/03/04 11:25:10;;;;;;;;;;;5.30;78.50;;;;;;5072430;28;20254;-68
2022/03/04 11:27:42;;;;;;;;;;;5.40;78.50;;;;;;5085208;28;19920;-67
2022/03/04 11:30:26;;;;;;;;;;;5.50;78.10;;;;;;5069612;28;19912;-67
2022/03/04 11:33:04;;;;;;;;;;;5.60;77.90;;;;;;5079303;28;19912;-68
2022/03/04 11:35:41;;;;;;;;;;;5.70;77.80;;;;;;5088925;28;20442;-68
2022/03/04 11:38:09;;;;;;;;;;;5.80;77.70;;;;;;5084161;28;20361;-68
2022/03/04 11:40:38;;;;;;;;;;;5.90;77.60;;;;;;5087750;28;19924;-68
2022/03/04 11:43:06;;;;;;;;;;;6.00;77.20;;;;;;5084467;28;19912;-68
2022/03/04 11:45:32;;;;;;;;;;;6.10;77.00;;;;;;5068274;28;19922;-68
2022/03/04 11:48:02;;;;;;;;;;;6.20;76.80;;;;;;5082710;28;20550;-68
2022/03/04 11:50:29;;;;;;;;;;;6.30;76.60;;;;;;5069304;28;20704;-68
2022/03/04 11:53:22;;;;;;;;;;;6.40;76.50;;;;;;5084475;28;19916;-68
2022/03/04 11:56:06;;;;;;;;;;;6.50;76.40;;;;;;5083791;28;19919;-68
2022/03/04 11:58:52;;;;;;;;;;;6.60;76.90;;;;;;5085526;28;19962;-68
2022/03/04 12:01:25;;;;;;;;;;;6.80;76.40;;;;;;5086994;28;20365;-68
2022/03/04 12:04:08;;;;;;;;;;;6.80;75.50;;;;;;5086532;28;19958;-68
2022/03/04 12:06:34;;;;;;;;;;;6.90;75.50;;;;;;5085646;28;19923;-69
2022/03/04 12:09:19;;;;;;;;;;;7.00;75.70;;;;;;5085717;28;19971;-68
2022/03/04 12:12:03;;;;;;;;;;;7.10;76.00;;;;;;5070068;28;19920;-68
2022/03/04 12:14:28;;;;;;;;;;;7.20;75.20;;;;;;5086318;28;19912;-68
2022/03/04 12:16:56;;;;;;;;;;;7.30;75.40;;;;;;5086379;28;19927;-68
2022/03/04 12:19:28;;;;;;;;;;;7.40;75.60;;;;;;5086534;28;19920;-68
2022/03/04 12:21:56;;;;;;;;;;;7.50;75.70;;;;;;5084957;28;19916;-68
2022/03/04 12:24:31;;;;;;;;;;;7.50;75.50;;;;;;5084835;28;20434;-68
2022/03/04 12:26:57;;;;;;;;;;;7.60;75.80;;;;;;5082688;28;19916;-68
2022/03/04 12:29:40;;;;;;;;;;;7.70;75.80;;;;;;5086791;28;20264;-68
2022/03/04 12:32:06;;;;;;;;;;;7.80;75.90;;;;;;5082926;28;19927;-68
2022/03/04 12:34:32;;;;;;;;;;;7.80;76.10;;;;;;5085112;28;19912;-68
2022/03/04 12:37:00;;;;;;;;;;;7.90;76.10;;;;;;5084854;28;19951;-68
2022/03/04 12:39:25;;;;;;;;;;;8.00;76.10;;;;;;5084957;28;19916;-68
2022/03/04 12:41:55;;;;;;;;;;;8.00;76.20;;;;;;5088126;28;19916;-68
2022/03/04 12:44:21;;;;;;;;;;;8.10;76.40;;;;;;5086426;28;19912;-68
2022/03/04 12:46:47;;;;;;;;;;;8.10;76.40;;;;;;5067617;28;20545;-68
2022/03/04 12:49:15;;;;;;;;;;;8.20;76.30;;;;;;5087813;28;19923;-68
2022/03/04 12:51:42;;;;;;;;;;;8.20;76.50;;;;;;5086355;28;19948;-68
2022/03/04 12:54:13;;;;;;;;;;;8.30;76.50;;;;;;5083361;28;19912;-68
2022/03/04 12:56:40;;;;;;;;;;;8.30;76.70;;;;;;5081790;28;19920;-68
2022/03/04 12:59:08;;;;;;;;;;;8.40;76.80;;;;;;5067249;28;19912;-68
2022/03/04 13:01:33;;;;;;;;;;;8.40;76.90;;;;;;5069072;28;19915;-68
2022/03/04 13:04:00;;;;;;;;;;;8.40;77.00;;;;;;5085902;28;19912;-69
2022/03/04 13:06:26;;;;;;;;;;;8.50;77.00;;;;;;5086720;28;19916;-68
2022/03/04 13:08:52;;;;;;;;;;;8.50;77.00;;;;;;5085234;28;20563;-68
2022/03/04 13:11:19;;;;;;;;;;;8.50;76.80;;;;;;5085395;28;19966;-68
2022/03/04 13:13:45;;;;;;;;;;;8.50;76.80;;;;;;5085861;28;19956;-68
2022/03/04 13:16:10;;;;;;;;;;;8.60;76.90;;;;;;5085426;28;19927;-68
2022/03/04 13:18:36;;;;;;;;;;;8.60;77.00;;;;;;5066543;28;19912;-68
2022/03/04 13:21:02;;;;;;;;;;;8.60;77.10;;;;;;5083998;28;19938;-68
2022/03/04 13:23:27;;;;;;;;;;;8.60;77.20;;;;;;5067124;28;19912;-68
2022/03/04 13:25:54;;;;;;;;;;;8.70;77.50;;;;;;5068500;28;19923;-68
2022/03/04 13:28:20;;;;;;;;;;;8.70;77.70;;;;;;5083515;28;19920;-68
2022/03/04 13:30:49;;;;;;;;;;;8.70;77.90;;;;;;5086391;28;19924;-68
2022/03/04 13:33:14;;;;;;;;;;;8.70;77.90;;;;;;5083548;28;19908;-68
2022/03/04 13:35:57;;;;;;;;;;;8.70;77.80;;;;;;5086271;28;19923;-69
2022/03/04 13:38:23;;;;;;;;;;;8.70;77.80;;;;;;5084786;28;20023;-68
2022/03/04 13:40:49;;;;;;;;;;;8.80;78.50;;;;;;5084919;28;20349;-68
2022/03/04 13:43:27;;;;;;;;;;;8.80;78.40;;;;;;5085090;28;19912;-69
2022/03/04 13:45:54;;;;;;;;;;;8.80;78.20;;;;;;5082995;28;20362;-69
2022/03/04 13:48:20;;;;;;;;;;;8.80;78.60;;;;;;5083690;28;19912;-68
2022/03/04 13:50:46;;;;;;;;;;;8.80;78.50;;;;;;5068416;28;20349;-68
2022/03/04 13:53:13;;;;;;;;;;;8.80;79.10;;;;;;5084202;28;20002;-68
2022/03/04 13:55:40;;;;;;;;;;;8.90;79.50;;;;;;5067733;28;20580;-68
2022/03/04 13:58:12;;;;;;;;;;;8.90;79.30;;;;;;5085108;28;19923;-69
2022/03/04 14:00:38;;;;;;;;;;;8.90;79.40;;;;;;5086805;28;20341;-68
2022/03/04 14:03:08;;;;;;;;;;;8.90;78.80;;;;;;5085234;28;20368;-68
2022/03/04 14:05:41;;;;;;;;;;;8.90;79.20;;;;;;5066549;28;19920;-68
2022/03/04 14:08:10;;;;;;;;;;;8.90;79.20;;;;;;5082346;28;20459;-69
2022/03/04 14:10:37;;;;;;;;;;;9.00;79.80;;;;;;5064734;28;19983;-68
2022/03/04 14:13:03;;;;;;;;;;;9.00;79.70;;;;;;5083473;28;19978;-68
2022/03/04 14:15:30;;;;;;;;;;;9.00;78.80;;;;;;5087735;28;19943;-68
2022/03/04 14:17:56;;;;;;;;;;;9.00;79.60;;;;;;5089024;28;19908;-68
2022/03/04 14:20:23;;;;;;;;;;;9.00;79.30;;;;;;5088324;28;19917;-68
2022/03/04 14:22:48;;;;;;;;;;;9.00;79.60;;;;;;5088547;28;19924;-68
2022/03/04 14:25:15;;;;;;;;;;;9.00;79.90;;;;;;5090078;28;20300;-68
2022/03/04 14:27:42;;;;;;;;;;;9.00;79.60;;;;;;5070498;28;19955;-68
2022/03/04 14:30:08;;;;;;;;;;;9.00;79.50;;;;;;5090351;28;20502;-68